Time;durP1;ratioP1;P1;durP2;ratioP2;P2;SDS_P1;SDS_P2;PMS_P1;PMS_P2;Temp;Humidity;BMP_temperature;BMP_pressure;BME280_temperature;BME280_humidity;BME280_pressure;Samples;Min_cycle;Max_cycle;Signal;HPM_P1;HPM_P2
2023/06/13 00:00:15;;;;;;;9.05;3.80;;;20.50;51.80;;;;;;2099086;28;20028;-69
2023/06/13 00:01:16;;;;;;;4.05;3.60;;;20.50;51.60;;;;;;2098653;28;20451;-69
2023/06/13 00:02:16;;;;;;;7.90;4.93;;;20.50;51.60;;;;;;2098256;28;20024;-69
2023/06/13 00:03:19;;;;;;;7.38;4.93;;;20.50;51.60;;;;;;2099217;28;20024;-69
2023/06/13 00:04:23;;;;;;;5.68;4.43;;;20.50;51.80;;;;;;2099612;28;20021;-69
2023/06/13 00:05:24;;;;;;;8.13;3.80;;;20.40;52.20;;;;;;2101937;28;20079;-69
2023/06/13 00:06:27;;;;;;;4.35;3.90;;;20.50;52.00;;;;;;2101700;28;20050;-69
2023/06/13 00:07:31;;;;;;;5.95;3.97;;;20.40;51.80;;;;;;2098143;28;20044;-69
2023/06/13 00:08:32;;;;;;;9.13;4.15;;;20.40;52.00;;;;;;2100212;28;20448;-69
2023/06/13 00:09:32;;;;;;;12.77;4.07;;;20.40;52.20;;;;;;2098680;28;20397;-69
2023/06/13 00:10:33;;;;;;;5.03;3.42;;;20.40;52.60;;;;;;2098804;28;20020;-69
2023/06/13 00:11:33;;;;;;;4.93;3.70;;;20.40;52.40;;;;;;2100135;28;20069;-69
2023/06/13 00:12:38;;;;;;;5.18;3.63;;;20.40;52.40;;;;;;2097873;28;20035;-69
2023/06/13 00:13:39;;;;;;;5.68;3.38;;;20.30;52.60;;;;;;2099440;28;20029;-69
2023/06/13 00:14:40;;;;;;;5.65;4.13;;;20.30;53.00;;;;;;2098000;28;20056;-69
2023/06/13 00:15:51;;;;;;;8.38;4.35;;;20.30;52.80;;;;;;2097870;28;20024;-69
2023/06/13 00:16:54;;;;;;;3.97;3.58;;;20.30;52.50;;;;;;2097471;28;20032;-69
2023/06/13 00:17:55;;;;;;;5.38;3.90;;;20.20;52.50;;;;;;2100014;28;20024;-69
2023/06/13 00:18:56;;;;;;;6.88;4.93;;;20.20;53.10;;;;;;2100037;28;20032;-69
2023/06/13 00:19:56;;;;;;;5.35;4.03;;;20.20;52.90;;;;;;2098675;28;20140;-69
2023/06/13 00:20:58;;;;;;;3.78;3.47;;;20.20;52.80;;;;;;2098587;28;20557;-69
2023/06/13 00:21:59;;;;;;;4.95;3.85;;;20.20;52.70;;;;;;2096652;28;20040;-69
2023/06/13 00:23:03;;;;;;;5.93;4.00;;;20.10;52.50;;;;;;2098927;28;20051;-69
2023/06/13 00:24:04;;;;;;;4.65;3.60;;;20.10;53.00;;;;;;2098514;28;20095;-69
2023/06/13 00:25:05;;;;;;;5.32;3.67;;;20.10;53.00;;;;;;2099568;28;20032;-69
2023/06/13 00:26:06;;;;;;;4.25;3.60;;;20.10;53.10;;;;;;2099691;28;20052;-69
2023/06/13 00:27:06;;;;;;;4.57;3.70;;;20.10;53.70;;;;;;2099419;28;20027;-69
2023/06/13 00:28:07;;;;;;;8.65;3.65;;;20.10;53.50;;;;;;2098794;28;20036;-69
2023/06/13 00:29:08;;;;;;;3.83;3.53;;;20.00;53.70;;;;;;2099304;28;20039;-69
2023/06/13 00:30:09;;;;;;;4.97;4.22;;;20.00;54.00;;;;;;2101541;28;20020;-69
2023/06/13 00:31:10;;;;;;;6.53;3.83;;;20.00;54.10;;;;;;2102517;28;20020;-69
2023/06/13 00:32:11;;;;;;;4.95;3.63;;;19.90;54.10;;;;;;2097466;28;20028;-69
2023/06/13 00:33:16;;;;;;;5.78;3.30;;;19.90;53.90;;;;;;2098829;28;20876;-69
2023/06/13 00:34:16;;;;;;;4.15;3.83;;;19.90;53.90;;;;;;2099132;28;20410;-69
2023/06/13 00:35:17;;;;;;;4.18;3.58;;;19.90;54.20;;;;;;2100552;28;20012;-69
2023/06/13 00:36:19;;;;;;;6.70;3.90;;;19.80;54.40;;;;;;2098761;28;20027;-69
2023/06/13 00:37:20;;;;;;;5.38;3.88;;;19.80;54.40;;;;;;2099365;28;20016;-69
2023/06/13 00:38:23;;;;;;;5.28;3.83;;;19.80;54.30;;;;;;2099935;28;20086;-69
2023/06/13 00:39:23;;;;;;;6.95;3.72;;;19.80;54.60;;;;;;2098996;28;20364;-69
2023/06/13 00:40:25;;;;;;;7.45;3.45;;;19.70;54.30;;;;;;2099058;28;20036;-69
2023/06/13 00:41:25;;;;;;;4.75;3.30;;;19.70;54.40;;;;;;2098873;28;20016;-69
2023/06/13 00:42:26;;;;;;;4.88;4.20;;;19.70;54.40;;;;;;2099268;28;20027;-69
2023/06/13 00:43:28;;;;;;;6.05;3.75;;;19.70;54.70;;;;;;2099019;28;20052;-69
2023/06/13 00:44:28;;;;;;;6.10;3.60;;;19.60;54.60;;;;;;2097500;28;20538;-69
2023/06/13 00:45:29;;;;;;;6.50;3.60;;;19.60;54.40;;;;;;2098523;28;20385;-69
2023/06/13 00:46:34;;;;;;;5.18;3.83;;;19.60;54.80;;;;;;2100344;28;20059;-69
2023/06/13 00:47:36;;;;;;;7.28;3.30;;;19.60;54.60;;;;;;2099237;28;20020;-69
2023/06/13 00:48:38;;;;;;;4.78;3.97;;;19.50;54.80;;;;;;2098396;28;20080;-69
2023/06/13 00:49:38;;;;;;;6.43;4.00;;;19.50;55.30;;;;;;2098865;28;20058;-69
2023/06/13 00:50:46;;;;;;;5.78;4.20;;;19.50;55.00;;;;;;2097438;28;20031;-69
2023/06/13 00:51:46;;;;;;;4.63;3.40;;;19.50;55.20;;;;;;2098799;28;20487;-69
2023/06/13 00:52:47;;;;;;;7.13;3.85;;;19.40;55.00;;;;;;2099723;28;20445;-69
2023/06/13 00:53:49;;;;;;;6.18;3.50;;;19.40;55.10;;;;;;2098805;28;20021;-69
2023/06/13 00:54:49;;;;;;;4.07;3.50;;;19.40;55.20;;;;;;2097282;28;20024;-69
2023/06/13 00:55:50;;;;;;;6.45;4.15;;;19.40;54.80;;;;;;2098562;28;20048;-69
2023/06/13 00:56:51;;;;;;;5.32;4.40;;;19.40;55.20;;;;;;2098084;28;20020;-69
2023/06/13 00:57:55;;;;;;;5.78;4.90;;;19.30;55.30;;;;;;2096816;28;20031;-69
2023/06/13 00:59:01;;;;;;;8.50;5.32;;;19.30;55.60;;;;;;2099320;28;20484;-69
2023/06/13 01:00:04;;;;;;;5.50;4.40;;;19.30;55.70;;;;;;2098656;28;20036;-69
2023/06/13 01:01:04;;;;;;;8.25;4.68;;;19.20;55.30;;;;;;2097491;28;20372;-69
2023/06/13 01:02:05;;;;;;;3.95;3.60;;;19.20;55.60;;;;;;2097253;28;20036;-69
2023/06/13 01:03:09;;;;;;;4.45;4.05;;;19.20;55.70;;;;;;2096432;28;20032;-69
2023/06/13 01:04:13;;;;;;;4.85;4.07;;;19.20;55.50;;;;;;2098650;28;20107;-69
2023/06/13 01:05:14;;;;;;;5.75;3.55;;;19.20;55.60;;;;;;2098906;28;20073;-69
2023/06/13 01:06:14;;;;;;;4.20;3.45;;;19.20;55.50;;;;;;2097668;28;20020;-69
2023/06/13 01:07:15;;;;;;;4.38;3.38;;;19.10;55.50;;;;;;2098015;28;20024;-69
2023/06/13 01:08:27;;;;;;;6.35;4.20;;;19.10;55.70;;;;;;2102087;28;20024;-69
2023/06/13 01:09:27;;;;;;;7.03;4.43;;;19.10;56.20;;;;;;2100807;28;20446;-69
2023/06/13 01:10:29;;;;;;;6.95;4.30;;;19.10;56.20;;;;;;2098482;28;20025;-69
2023/06/13 01:12:02;;;;;;;5.30;3.45;;;19.00;56.20;;;;;;2099022;28;20025;-69
2023/06/13 01:13:50;;;;;;;5.50;4.13;;;19.00;57.10;;;;;;2097500;28;20036;-69
2023/06/13 01:15:07;;;;;;;7.10;4.40;;;18.90;57.10;;;;;;2093718;28;20399;-69
2023/06/13 01:16:33;;;;;;;9.52;4.82;;;18.90;56.90;;;;;;2098218;28;20116;-69
2023/06/13 01:17:41;;;;;;;5.97;4.43;;;18.80;56.50;;;;;;2099549;28;20012;-69
2023/06/13 01:18:44;;;;;;;8.23;4.05;;;18.80;56.60;;;;;;2098056;28;20053;-69
2023/06/13 01:19:57;;;;;;;7.45;3.78;;;18.80;56.20;;;;;;2097946;28;20028;-69
2023/06/13 01:21:00;;;;;;;5.65;4.07;;;18.80;56.50;;;;;;2097837;28;20032;-69
2023/06/13 01:22:06;;;;;;;5.35;3.90;;;18.80;56.50;;;;;;2098806;28;20033;-69
2023/06/13 01:23:15;;;;;;;6.45;4.40;;;18.80;56.60;;;;;;2098341;28;20032;-69
2023/06/13 01:24:41;;;;;;;6.43;4.55;;;18.80;56.70;;;;;;2096210;28;20047;-69
2023/06/13 01:26:22;;;;;;;5.07;4.00;;;18.80;56.90;;;;;;2104986;28;20050;-69
2023/06/13 01:27:22;;;;;;;;;;;18.70;56.80;;;;;;2101117;28;20031;-69
2023/06/13 01:28:24;;;;;;;5.20;3.67;;;18.60;57.40;;;;;;2097975;28;19908;-69
2023/06/13 01:29:27;;;;;;;5.30;3.95;;;18.70;56.90;;;;;;2099745;28;20111;-69
2023/06/13 01:30:28;;;;;;;4.43;4.00;;;18.70;57.00;;;;;;2097555;28;20106;-69
2023/06/13 01:31:29;;;;;;;6.43;4.10;;;18.60;56.80;;;;;;2102861;28;20029;-69
2023/06/13 01:32:32;;;;;;;3.70;3.38;;;18.70;57.20;;;;;;2099907;28;20051;-69
2023/06/13 01:33:34;;;;;;;6.47;3.83;;;18.70;57.10;;;;;;2099392;28;20028;-69
2023/06/13 01:34:35;;;;;;;4.13;3.70;;;18.60;56.70;;;;;;2101731;28;20507;-69
2023/06/13 01:35:37;;;;;;;5.20;3.83;;;18.60;57.00;;;;;;2099835;28;20020;-69
2023/06/13 01:36:38;;;;;;;8.02;5.00;;;18.60;57.10;;;;;;2099385;28;20020;-69
2023/06/13 01:37:39;;;;;;;6.50;4.38;;;18.70;57.20;;;;;;2099336;28;20177;-69
2023/06/13 01:38:41;;;;;;;5.85;3.67;;;18.60;56.70;;;;;;2098787;28;20020;-70
2023/06/13 01:39:41;;;;;;;4.20;3.67;;;18.60;56.80;;;;;;2101256;28;20028;-69
2023/06/13 01:40:42;;;;;;;4.20;3.88;;;18.60;56.70;;;;;;2098350;28;20068;-69
2023/06/13 01:41:42;;;;;;;4.82;4.20;;;18.60;56.60;;;;;;2099769;28;20040;-69
2023/06/13 01:42:43;;;;;;;6.50;4.13;;;18.60;56.90;;;;;;2099425;28;20020;-69
2023/06/13 01:43:43;;;;;;;15.63;8.38;;;18.60;56.80;;;;;;2100068;28;20027;-69
2023/06/13 01:44:44;;;;;;;15.57;9.02;;;18.60;57.20;;;;;;2100609;28;20161;-69
2023/06/13 01:45:46;;;;;;;8.13;5.53;;;18.60;57.60;;;;;;2099882;28;20471;-69
2023/06/13 01:47:08;;;;;;;4.85;4.35;;;18.60;57.50;;;;;;2104369;28;20427;-69
2023/06/13 01:48:28;;;;;;;5.80;4.20;;;18.60;57.70;;;;;;2101559;28;20036;-70
2023/06/13 01:49:35;;;;;;;;;;;18.50;57.50;;;;;;2099358;28;20479;-69
2023/06/13 01:50:55;;;;;;;5.10;3.83;;;18.40;57.70;;;;;;2097672;28;20279;-69
2023/06/13 01:52:07;;;;;;;6.18;4.28;;;18.40;57.80;;;;;;2100877;28;20028;-69
2023/06/13 01:53:27;;;;;;;4.35;3.95;;;18.40;58.00;;;;;;2101532;28;20502;-69
2023/06/13 01:54:31;;;;;;;6.72;4.13;;;18.40;58.20;;;;;;2099401;28;20084;-69
2023/06/13 01:55:47;;;;;;;5.13;3.90;;;18.40;58.00;;;;;;2101331;28;20383;-69
2023/06/13 01:56:55;;;;;;;4.03;3.72;;;18.40;58.30;;;;;;2100423;28;20111;-69
2023/06/13 01:58:03;;;;;;;12.25;4.43;;;18.40;58.20;;;;;;2099007;28;20020;-69
2023/06/13 01:59:06;;;;;;;5.43;4.68;;;18.40;58.30;;;;;;2100116;28;20028;-69
2023/06/13 02:00:13;;;;;;;4.93;4.25;;;18.30;58.20;;;;;;2099166;28;20557;-69
2023/06/13 02:01:14;;;;;;;4.82;4.32;;;18.30;58.20;;;;;;2098563;28;20032;-69
2023/06/13 02:02:15;;;;;;;5.13;4.03;;;18.30;58.20;;;;;;2099392;28;20519;-69
2023/06/13 02:03:16;;;;;;;4.47;4.10;;;18.30;58.40;;;;;;2099159;28;20021;-69
2023/06/13 02:04:17;;;;;;;4.95;4.30;;;18.30;58.40;;;;;;2098915;28;20476;-69
2023/06/13 02:05:19;;;;;;;6.55;3.63;;;18.30;58.40;;;;;;2099669;28;20365;-69
2023/06/13 02:06:20;;;;;;;5.03;4.03;;;18.30;58.60;;;;;;2099722;28;20024;-69
2023/06/13 02:07:22;;;;;;;4.35;3.95;;;18.30;58.60;;;;;;2100516;28;20015;-69
2023/06/13 02:08:23;;;;;;;6.90;4.82;;;18.30;58.60;;;;;;2101001;28;20024;-69
2023/06/13 02:09:23;;;;;;;5.38;4.20;;;18.40;58.60;;;;;;2099083;28;20013;-69
2023/06/13 02:10:24;;;;;;;6.80;5.05;;;18.30;58.60;;;;;;2102250;28;20492;-69
2023/06/13 02:11:27;;;;;;;6.60;4.18;;;18.30;58.60;;;;;;2103156;28;20507;-69
2023/06/13 02:12:28;;;;;;;5.78;4.53;;;18.30;58.60;;;;;;2100451;28;20020;-69
2023/06/13 02:13:28;;;;;;;5.60;4.35;;;18.30;58.70;;;;;;2099302;28;20021;-70
2023/06/13 02:14:32;;;;;;;4.93;4.43;;;18.30;58.70;;;;;;2101123;28;20622;-70
2023/06/13 02:15:33;;;;;;;5.53;4.63;;;18.30;58.70;;;;;;2099439;28;20081;-69
2023/06/13 02:16:34;;;;;;;4.75;4.32;;;18.30;58.70;;;;;;2099805;28;20076;-69
2023/06/13 02:17:35;;;;;;;5.00;4.50;;;18.30;58.80;;;;;;2100136;28;21004;-69
2023/06/13 02:18:37;;;;;;;5.25;4.45;;;18.30;58.80;;;;;;2099781;28;20014;-69
2023/06/13 02:19:37;;;;;;;5.20;4.68;;;18.30;58.80;;;;;;2101087;28;20409;-69
2023/06/13 02:20:38;;;;;;;7.72;4.53;;;18.30;58.80;;;;;;2102170;28;20093;-69
2023/06/13 02:21:43;;;;;;;6.18;4.28;;;18.40;58.90;;;;;;2097092;28;20410;-69
2023/06/13 02:22:44;;;;;;;6.78;4.65;;;18.30;58.90;;;;;;2099785;28;20012;-69
2023/06/13 02:23:44;;;;;;;6.72;4.45;;;18.30;58.90;;;;;;2098646;28;20073;-69
2023/06/13 02:24:47;;;;;;;4.65;4.25;;;18.40;59.10;;;;;;2100567;28;20024;-69
2023/06/13 02:25:47;;;;;;;5.25;4.47;;;18.30;59.10;;;;;;2098185;28;20081;-69
2023/06/13 02:26:48;;;;;;;4.50;4.10;;;18.40;59.10;;;;;;2099254;28;20732;-69
2023/06/13 02:27:48;;;;;;;8.15;5.82;;;18.30;58.90;;;;;;2099683;28;20081;-69
2023/06/13 02:28:49;;;;;;;8.65;4.43;;;18.40;58.90;;;;;;2097283;28;20498;-69
2023/06/13 02:29:51;;;;;;;7.70;5.03;;;18.40;59.10;;;;;;2100819;28;20016;-69
2023/06/13 02:30:52;;;;;;;7.90;4.68;;;18.40;59.00;;;;;;2098450;28;20020;-69
2023/06/13 02:31:52;;;;;;;4.70;4.30;;;18.30;59.00;;;;;;2098666;28;20032;-69
2023/06/13 02:32:53;;;;;;;7.45;3.97;;;18.40;59.00;;;;;;2099535;28;20399;-69
2023/06/13 02:33:53;;;;;;;5.30;4.32;;;18.40;59.10;;;;;;2099464;28;20024;-70
2023/06/13 02:34:54;;;;;;;4.78;4.15;;;18.30;58.90;;;;;;2101817;28;20346;-69
2023/06/13 02:35:54;;;;;;;4.40;3.95;;;18.40;59.10;;;;;;2097892;28;20039;-69
2023/06/13 02:36:55;;;;;;;6.30;4.88;;;18.40;59.10;;;;;;2099639;28;20039;-69
2023/06/13 02:37:56;;;;;;;7.13;4.20;;;18.40;59.00;;;;;;2100887;28;20056;-69
2023/06/13 02:38:56;;;;;;;4.85;4.15;;;18.30;59.10;;;;;;2100388;28;20085;-69
2023/06/13 02:39:57;;;;;;;11.43;5.63;;;18.40;59.20;;;;;;2098160;28;20394;-69
2023/06/13 02:40:59;;;;;;;4.93;4.50;;;18.40;59.10;;;;;;2099641;28;20501;-69
2023/06/13 02:42:00;;;;;;;5.68;4.40;;;18.40;59.30;;;;;;2097882;28;20040;-69
2023/06/13 02:43:01;;;;;;;12.30;5.45;;;18.30;59.10;;;;;;2098195;28;20727;-69
2023/06/13 02:44:01;;;;;;;5.72;4.30;;;18.40;59.20;;;;;;2103079;28;20806;-69
2023/06/13 02:45:03;;;;;;;4.65;4.22;;;18.40;59.10;;;;;;2100840;28;20506;-69
2023/06/13 02:46:03;;;;;;;5.18;4.45;;;18.30;59.10;;;;;;2099737;28;20008;-69
2023/06/13 02:47:04;;;;;;;7.50;4.47;;;18.30;59.00;;;;;;2099492;28;20050;-69
2023/06/13 02:48:05;;;;;;;9.02;5.22;;;18.30;59.20;;;;;;2099909;28;20021;-69
2023/06/13 02:49:05;;;;;;;6.22;5.28;;;18.40;59.40;;;;;;2098375;28;20025;-69
2023/06/13 02:50:06;;;;;;;8.65;4.40;;;18.30;59.30;;;;;;2097176;28;20028;-69
2023/06/13 02:51:07;;;;;;;4.75;4.28;;;18.30;59.40;;;;;;2100306;28;20024;-69
2023/06/13 02:52:08;;;;;;;5.45;4.40;;;18.30;59.40;;;;;;2099356;28;20089;-69
2023/06/13 02:53:08;;;;;;;7.40;4.50;;;18.30;59.30;;;;;;2099489;28;20396;-69
2023/06/13 02:54:09;;;;;;;6.25;4.40;;;18.30;59.40;;;;;;2101273;28;20098;-69
2023/06/13 02:55:10;;;;;;;5.15;4.40;;;18.30;59.30;;;;;;2100832;28;20026;-69
2023/06/13 02:56:11;;;;;;;7.68;5.10;;;18.30;59.40;;;;;;2098532;28;20414;-69
2023/06/13 02:57:12;;;;;;;5.35;4.28;;;18.30;59.40;;;;;;2100431;28;20031;-69
2023/06/13 02:58:13;;;;;;;8.68;4.80;;;18.30;59.40;;;;;;2099351;28;20070;-69
2023/06/13 02:59:13;;;;;;;5.50;4.43;;;18.30;59.60;;;;;;2099494;28;20038;-69
2023/06/13 03:00:17;;;;;;;7.68;5.13;;;18.30;59.80;;;;;;2100101;28;20543;-69
2023/06/13 03:01:18;;;;;;;25.08;13.63;;;18.30;59.70;;;;;;2099295;28;20021;-69
2023/06/13 03:02:25;;;;;;;8.05;5.10;;;18.30;59.70;;;;;;2101588;28;20021;-69
2023/06/13 03:03:26;;;;;;;5.88;4.65;;;18.30;59.70;;;;;;2099955;28;20055;-69
2023/06/13 03:04:28;;;;;;;4.90;4.40;;;18.30;59.90;;;;;;2097678;28;20020;-70
2023/06/13 03:05:30;;;;;;;5.55;4.85;;;18.30;59.90;;;;;;2098172;28;20078;-70
2023/06/13 03:06:31;;;;;;;6.75;4.82;;;18.30;60.00;;;;;;2099733;28;20379;-70
2023/06/13 03:07:31;;;;;;;7.93;5.28;;;18.20;59.80;;;;;;2099926;28;20025;-70
2023/06/13 03:08:32;;;;;;;9.07;4.90;;;18.20;59.90;;;;;;2099497;28;20103;-70
2023/06/13 03:09:32;;;;;;;7.78;4.40;;;18.20;60.00;;;;;;2098059;28;20013;-70
2023/06/13 03:10:33;;;;;;;10.85;6.90;;;18.20;60.00;;;;;;2099756;28;20056;-70
2023/06/13 03:11:34;;;;;;;8.00;5.18;;;18.30;60.10;;;;;;2100337;28;20025;-70
2023/06/13 03:12:34;;;;;;;6.82;4.93;;;18.20;60.20;;;;;;2099784;28;20046;-70
2023/06/13 03:13:35;;;;;;;5.88;4.68;;;18.20;59.90;;;;;;2100908;28;20027;-70
2023/06/13 03:14:36;;;;;;;8.52;5.30;;;18.20;60.10;;;;;;2098131;28;20495;-70
2023/06/13 03:15:37;;;;;;;6.47;5.55;;;18.20;60.20;;;;;;2098039;28;20437;-70
2023/06/13 03:16:38;;;;;;;5.47;4.78;;;18.20;60.30;;;;;;2098591;28;20103;-70
2023/06/13 03:17:39;;;;;;;6.28;4.63;;;18.20;60.90;;;;;;2099439;28;20481;-70
2023/06/13 03:18:39;;;;;;;6.80;4.57;;;18.20;60.90;;;;;;2099211;28;20028;-70
2023/06/13 03:19:40;;;;;;;8.25;5.75;;;18.20;60.10;;;;;;2099906;28;20060;-70
2023/06/13 03:20:45;;;;;;;7.28;5.30;;;18.20;60.20;;;;;;2097570;28;20498;-70
2023/06/13 03:21:46;;;;;;;5.45;4.80;;;18.20;60.20;;;;;;2100313;28;20036;-70
2023/06/13 03:22:46;;;;;;;6.95;5.15;;;18.20;60.00;;;;;;2101630;28;20060;-70
2023/06/13 03:23:47;;;;;;;5.80;5.10;;;18.20;60.30;;;;;;2101183;28;20024;-70
2023/06/13 03:24:47;;;;;;;7.68;5.43;;;18.20;60.50;;;;;;2098493;28;20020;-70
2023/06/13 03:25:49;;;;;;;8.70;4.82;;;18.20;60.50;;;;;;2096704;28;20618;-70
2023/06/13 03:26:49;;;;;;;5.85;4.60;;;18.20;60.60;;;;;;2099162;28;20020;-70
2023/06/13 03:27:50;;;;;;;25.55;14.07;;;18.20;60.60;;;;;;2099427;28;20051;-70
2023/06/13 03:28:50;;;;;;;13.27;9.45;;;18.20;60.60;;;;;;2098818;28;20382;-70
2023/06/13 03:29:51;;;;;;;6.70;5.40;;;18.10;60.60;;;;;;2097747;28;20531;-70
2023/06/13 03:30:54;;;;;;;10.77;5.90;;;18.10;60.50;;;;;;2100547;28;20020;-70
2023/06/13 03:31:55;;;;;;;8.93;5.95;;;18.10;60.60;;;;;;2100359;28;20027;-70
2023/06/13 03:32:55;;;;;;;5.95;5.13;;;18.10;60.60;;;;;;2099391;28;20484;-70
2023/06/13 03:33:56;;;;;;;9.88;5.75;;;18.10;60.70;;;;;;2099716;28;20035;-70
2023/06/13 03:34:56;;;;;;;15.25;6.05;;;18.10;61.00;;;;;;2100098;28;20113;-70
2023/06/13 03:35:57;;;;;;;6.07;4.90;;;18.10;60.90;;;;;;2100134;28;20028;-70
2023/06/13 03:37:03;;;;;;;6.55;4.60;;;18.10;61.00;;;;;;2100575;28;20032;-70
2023/06/13 03:38:03;;;;;;;13.55;9.45;;;18.10;60.60;;;;;;2100388;28;20441;-70
2023/06/13 03:39:04;;;;;;;33.17;19.20;;;18.10;60.50;;;;;;2100518;28;20089;-70
2023/06/13 03:40:05;;;;;;;13.40;9.32;;;18.10;60.90;;;;;;2101354;28;20157;-70
2023/06/13 03:41:06;;;;;;;9.00;5.20;;;18.20;61.00;;;;;;2100097;28;20035;-70
2023/06/13 03:42:07;;;;;;;5.63;5.00;;;18.10;60.80;;;;;;2099938;28;20036;-70
2023/06/13 03:43:07;;;;;;;10.05;5.18;;;18.10;60.60;;;;;;2096481;28;20071;-70
2023/06/13 03:44:08;;;;;;;24.70;12.10;;;18.10;61.00;;;;;;2099690;28;20028;-70
2023/06/13 03:45:09;;;;;;;9.27;5.95;;;18.10;61.00;;;;;;2098395;28;20020;-70
2023/06/13 03:46:10;;;;;;;11.23;8.15;;;18.10;61.20;;;;;;2100782;28;20136;-70
2023/06/13 03:47:10;;;;;;;6.45;5.15;;;18.10;61.30;;;;;;2098711;28;20391;-69
2023/06/13 03:48:11;;;;;;;11.65;5.38;;;18.10;61.30;;;;;;2099421;28;20050;-69
2023/06/13 03:49:11;;;;;;;7.95;5.55;;;18.10;61.30;;;;;;2099790;28;20050;-69
2023/06/13 03:50:12;;;;;;;16.95;9.35;;;18.10;61.30;;;;;;2097674;28;20433;-69
2023/06/13 03:51:12;;;;;;;13.35;5.97;;;18.10;61.30;;;;;;2098087;28;20012;-70
2023/06/13 03:52:13;;;;;;;8.50;5.40;;;18.10;61.40;;;;;;2096949;28;20146;-70
2023/06/13 03:53:13;;;;;;;6.38;4.43;;;18.10;61.40;;;;;;2097425;28;20027;-70
2023/06/13 03:54:14;;;;;;;7.28;5.70;;;18.10;61.30;;;;;;2097084;28;20036;-70
2023/06/13 03:55:15;;;;;;;13.93;7.57;;;18.10;61.30;;;;;;2098539;28;20524;-70
2023/06/13 03:56:16;;;;;;;5.25;4.75;;;18.10;61.60;;;;;;2096840;28;20027;-70
2023/06/13 03:57:17;;;;;;;6.15;4.72;;;18.20;61.70;;;;;;2097430;28;20039;-70
2023/06/13 03:58:18;;;;;;;5.45;4.22;;;18.20;61.70;;;;;;2099737;28;20028;-70
2023/06/13 03:59:18;;;;;;;8.23;4.90;;;18.20;61.70;;;;;;2100060;28;20111;-70
2023/06/13 04:00:19;;;;;;;12.50;8.23;;;18.30;61.70;;;;;;2098129;28;20035;-70
2023/06/13 04:01:20;;;;;;;7.45;5.65;;;18.30;61.50;;;;;;2098814;28;20864;-70
2023/06/13 04:02:20;;;;;;;21.80;10.70;;;18.30;61.30;;;;;;2098549;28;20024;-69
2023/06/13 04:03:21;;;;;;;7.03;5.38;;;18.40;61.40;;;;;;2098924;28;20028;-69
2023/06/13 04:04:21;;;;;;;8.18;4.80;;;18.40;61.10;;;;;;2098562;28;20031;-69
2023/06/13 04:05:22;;;;;;;5.55;4.88;;;18.50;61.10;;;;;;2097918;28;20028;-70
2023/06/13 04:06:23;;;;;;;7.57;4.90;;;18.60;61.10;;;;;;2098568;28;20048;-70
2023/06/13 04:07:25;;;;;;;6.63;4.30;;;18.70;60.60;;;;;;2097203;28;20044;-69
2023/06/13 04:08:26;;;;;;;6.40;4.72;;;18.80;60.10;;;;;;2098956;28;20157;-70
2023/06/13 04:09:26;;;;;;;5.00;4.43;;;18.90;59.90;;;;;;2098629;28;20046;-70
2023/06/13 04:10:27;;;;;;;7.50;5.38;;;19.10;59.70;;;;;;2098486;28;20128;-70
2023/06/13 04:11:29;;;;;;;7.05;5.07;;;19.20;59.30;;;;;;2099684;28;20029;-70
2023/06/13 04:12:30;;;;;;;7.50;5.68;;;19.40;59.10;;;;;;2100116;28;20032;-70
2023/06/13 04:13:30;;;;;;;5.28;4.78;;;19.60;58.20;;;;;;2100059;28;20021;-70
2023/06/13 04:14:32;;;;;;;7.35;4.50;;;19.80;57.60;;;;;;2099861;28;20078;-69
2023/06/13 04:15:33;;;;;;;5.35;4.68;;;19.90;57.20;;;;;;2098951;28;20013;-69
2023/06/13 04:16:33;;;;;;;5.75;4.80;;;20.10;56.80;;;;;;2099103;28;20015;-69
2023/06/13 04:17:34;;;;;;;4.80;4.25;;;20.20;56.40;;;;;;2098297;28;20033;-69
2023/06/13 04:18:37;;;;;;;6.13;5.05;;;20.40;56.30;;;;;;2096784;28;20127;-70
2023/06/13 04:19:37;;;;;;;4.80;4.32;;;20.50;55.90;;;;;;2098809;28;20530;-70
2023/06/13 04:20:38;;;;;;;6.30;4.15;;;20.60;55.60;;;;;;2097588;28;20455;-70
2023/06/13 04:21:38;;;;;;;8.13;5.15;;;20.80;55.40;;;;;;2097924;28;20451;-70
2023/06/13 04:22:39;;;;;;;5.97;4.32;;;20.90;55.10;;;;;;2098050;28;20435;-70
2023/06/13 04:23:40;;;;;;;8.73;4.68;;;21.10;54.80;;;;;;2097016;28;20492;-70
2023/06/13 04:24:40;;;;;;;5.43;4.47;;;21.20;54.40;;;;;;2100192;28;20107;-70
2023/06/13 04:25:41;;;;;;;9.38;5.60;;;21.20;54.20;;;;;;2099389;28;20554;-70
2023/06/13 04:26:45;;;;;;;6.50;4.93;;;21.30;54.00;;;;;;2099558;28;20086;-70
2023/06/13 04:27:45;;;;;;;7.13;4.95;;;21.20;54.00;;;;;;2098387;28;20024;-70
2023/06/13 04:28:47;;;;;;;5.20;4.75;;;21.10;54.50;;;;;;2099134;28;20024;-70
2023/06/13 04:29:49;;;;;;;5.30;4.40;;;21.10;54.70;;;;;;2098221;28;20029;-70
2023/06/13 04:30:51;;;;;;;5.72;4.38;;;21.00;54.90;;;;;;2097548;28;20028;-70
2023/06/13 04:31:53;;;;;;;6.35;4.72;;;21.00;55.40;;;;;;2098629;28;20024;-70
2023/06/13 04:32:57;;;;;;;8.13;4.40;;;21.00;55.50;;;;;;2098529;28;20387;-69
2023/06/13 04:33:59;;;;;;;7.78;4.40;;;20.90;55.50;;;;;;2098905;28;20399;-70
2023/06/13 04:35:00;;;;;;;6.70;3.80;;;20.80;55.70;;;;;;2099064;28;20577;-70
2023/06/13 04:36:05;;;;;;;8.93;4.65;;;20.80;56.00;;;;;;2098627;28;20017;-70
2023/06/13 04:37:06;;;;;;;6.78;4.70;;;20.80;56.10;;;;;;2100546;28;20044;-70
2023/06/13 04:38:08;;;;;;;6.43;4.43;;;20.80;55.90;;;;;;2099237;28;20098;-70
2023/06/13 04:39:08;;;;;;;5.13;4.63;;;20.80;56.30;;;;;;2098366;28;20035;-70
2023/06/13 04:40:10;;;;;;;5.93;4.55;;;20.70;56.30;;;;;;2098880;28;20032;-70
2023/06/13 04:41:13;;;;;;;5.85;4.55;;;20.80;56.40;;;;;;2096958;28;20405;-70
2023/06/13 04:42:14;;;;;;;6.47;4.35;;;20.80;57.10;;;;;;2099100;28;20035;-70
2023/06/13 04:43:14;;;;;;;5.35;4.13;;;20.80;56.60;;;;;;2098592;28;20392;-70
2023/06/13 04:44:15;;;;;;;5.65;5.05;;;20.90;56.40;;;;;;2097468;28;20074;-70
2023/06/13 04:45:20;;;;;;;6.82;4.47;;;20.90;56.20;;;;;;2099448;28;20070;-70
2023/06/13 04:46:21;;;;;;;5.85;4.45;;;20.90;56.10;;;;;;2099952;28;20024;-70
2023/06/13 04:47:30;;;;;;;6.10;4.22;;;21.00;56.30;;;;;;2098864;28;20024;-70
2023/06/13 04:48:30;;;;;;;5.18;4.22;;;21.00;55.80;;;;;;2099348;28;20346;-70
2023/06/13 04:49:31;;;;;;;4.80;4.30;;;21.00;56.20;;;;;;2099486;28;20043;-70
2023/06/13 04:50:33;;;;;;;5.43;4.13;;;21.10;56.10;;;;;;2096959;28;20448;-70
2023/06/13 04:51:34;;;;;;;5.85;4.53;;;21.10;56.30;;;;;;2098906;28;20025;-70
2023/06/13 04:52:35;;;;;;;6.63;4.05;;;21.10;55.90;;;;;;2099324;28;20069;-70
2023/06/13 04:53:37;;;;;;;5.47;4.20;;;21.10;56.10;;;;;;2098025;28;20044;-70
2023/06/13 04:54:39;;;;;;;6.50;4.95;;;21.20;56.20;;;;;;2100179;28;20488;-70
2023/06/13 04:55:40;;;;;;;6.88;4.55;;;21.20;56.00;;;;;;2098119;28;20035;-70
2023/06/13 04:56:41;;;;;;;6.00;4.22;;;21.20;55.80;;;;;;2099050;28;20686;-70
2023/06/13 04:57:41;;;;;;;8.80;4.57;;;21.20;55.60;;;;;;2098824;28;20016;-70
2023/06/13 04:58:42;;;;;;;9.50;4.85;;;21.30;55.60;;;;;;2098226;28;20143;-70
2023/06/13 04:59:43;;;;;;;8.10;4.85;;;21.30;55.80;;;;;;2097264;28;20033;-70
2023/06/13 05:00:48;;;;;;;5.47;4.68;;;21.30;55.60;;;;;;2099416;28;20047;-70
2023/06/13 05:01:49;;;;;;;5.60;4.18;;;21.40;55.70;;;;;;2096837;28;20036;-70
2023/06/13 05:02:50;;;;;;;7.13;4.38;;;21.40;55.60;;;;;;2097596;28;20032;-70
2023/06/13 05:03:52;;;;;;;6.05;4.40;;;21.40;55.80;;;;;;2099210;28;20349;-70
2023/06/13 05:04:52;;;;;;;6.93;4.57;;;21.50;55.90;;;;;;2099687;28;20086;-70
2023/06/13 05:05:53;;;;;;;5.85;4.28;;;21.50;55.60;;;;;;2102636;28;20097;-70
2023/06/13 05:06:53;;;;;;;5.95;4.20;;;21.60;55.60;;;;;;2100794;28;20074;-70
2023/06/13 05:07:57;;;;;;;9.10;4.53;;;21.60;55.50;;;;;;2098886;28;20016;-70
2023/06/13 05:08:58;;;;;;;7.00;4.20;;;21.70;55.60;;;;;;2100243;28;20020;-70
2023/06/13 05:09:58;;;;;;;8.55;4.88;;;21.70;55.40;;;;;;2098754;28;20044;-70
2023/06/13 05:10:59;;;;;;;7.97;4.45;;;21.70;55.10;;;;;;2100108;28;20028;-70
2023/06/13 05:12:00;;;;;;;8.32;4.13;;;21.80;55.20;;;;;;2099871;28;20029;-70
2023/06/13 05:13:01;;;;;;;4.70;4.25;;;21.80;55.10;;;;;;2098194;28;20460;-70
2023/06/13 05:14:01;;;;;;;6.07;4.22;;;21.90;55.10;;;;;;2099880;28;20758;-70
2023/06/13 05:15:02;;;;;;;5.03;4.32;;;21.90;55.60;;;;;;2099215;28;20035;-70
2023/06/13 05:16:03;;;;;;;6.00;4.50;;;22.00;55.00;;;;;;2097729;28;20055;-70
2023/06/13 05:17:05;;;;;;;8.13;4.40;;;22.00;55.00;;;;;;2101339;28;20027;-70
2023/06/13 05:18:12;;;;;;;5.93;4.30;;;22.00;55.00;;;;;;2098306;28;20507;-70
2023/06/13 05:19:12;;;;;;;6.68;4.45;;;22.10;54.90;;;;;;2099497;28;20115;-70
2023/06/13 05:20:14;;;;;;;7.80;4.47;;;22.10;55.50;;;;;;2100219;28;20029;-70
2023/06/13 05:21:16;;;;;;;6.15;4.53;;;22.20;55.10;;;;;;2094803;28;20078;-70
2023/06/13 05:22:17;;;;;;;8.88;4.38;;;22.20;54.60;;;;;;2099517;28;20024;-70
2023/06/13 05:23:20;;;;;;;9.35;4.28;;;22.30;54.80;;;;;;2099424;28;20051;-70
2023/06/13 05:24:22;;;;;;;6.47;4.10;;;22.40;55.00;;;;;;2099704;28;20024;-70